Chugwater, Wyoming
Current Conditions -  °F | °C
As of 3:35 AM on Thursday 27 Nov 2014 (Local Time) from KGUR Reporting Station
Overcast Overcast  
Wind Chill: 29°   Ceiling: 300
Heat Index: 29°   Visibility: 0.25mi
Dew Point: 27°   Wind: 0mph
Humidity: 93%   Direction: NA
Pressure: 30.17"   Gusts: NA
Location:  41.76°N, 104.82°W
Report Text: KGUR 271035Z AUTO 00000KT 1/4SM OVC003 M02/M03 A3017 RMK AO2 T10161026 PWINO
Loading
Personal Weather Stations






























Interactive Weather Map New forecast layout! Learn more

10-Day Weather Forecast

Advertisements
Track Severe Weather on mobile